This is the latest recevied weather packets stored in our database for station/object KC2TER. If no packets are shown the sender has not sent any weather packets the latest 10 day(s).
| Time | Temp. | Humidity | Pressure | Rain* | Wind** | Luminosity | Snow |
|---|---|---|---|---|---|---|---|
| 1778141796 | 10.56° C | 95% | 1009.5 hPa | 0 mm | - | 0 W/m² | - |
| 1778141492 | 10.56° C | 95% | 1009.2 hPa | 0 mm | - | 0 W/m² | - |
| 1778141189 | 10.56° C | 95% | 1009.4 hPa | 0 mm | - | 0 W/m² | - |
| 1778140886 | 10.56° C | 95% | 1009.4 hPa | 0 mm | - | 0 W/m² | - |
| 1778140585 | 10.56° C | 95% | 1009.4 hPa | 0 mm | - | 0 W/m² | - |
| 1778140282 | 10.56° C | 95% | 1009.4 hPa | 0 mm | - | 0 W/m² | - |
| 1778139979 | 10.56° C | 95% | 1009.2 hPa | 0 mm | - | 0 W/m² | - |
| 1778139677 | 10.56° C | 95% | 1009.3 hPa | 0 mm | - | 0 W/m² | - |
| 1778139373 | 10.56° C | 95% | 1009.1 hPa | 0 mm | - | 0 W/m² | - |
| 1778139069 | 10.56° C | 96% | 1008.9 hPa | 0 mm | - | 0 W/m² | - |
| 1778138768 | 10.56° C | 95% | 1009 hPa | 0 mm | - | 0 W/m² | - |
| 1778138464 | 10.56° C | 95% | 1009.2 hPa | 0 mm | - | 0 W/m² | - |
| 1778138162 | 10.56° C | 95% | 1009.1 hPa | 0 mm | - | 0 W/m² | - |
| 1778137858 | 10.56° C | 95% | 1009.1 hPa | 1.27 mm | - | 0 W/m² | - |
| 1778137555 | 10.56° C | 95% | 1009.3 hPa | 1.27 mm | - | 0 W/m² | - |
| 1778137252 | 11.11° C | 94% | 1008.9 hPa | 3.05 mm | - | 0 W/m² | - |
| 1778136948 | 11.11° C | 94% | 1009.6 hPa | 3.05 mm | - | 0 W/m² | - |
| 1778136646 | 11.67° C | 94% | 1009.5 hPa | 0 mm | - | 0 W/m² | - |
| 1778136344 | 11.67° C | 94% | 1008.9 hPa | 1.78 mm | - | 0 W/m² | - |
| 1778136042 | 12.22° C | 94% | 1008.9 hPa | 0 mm | - | 0 W/m² | - |
| 1778135739 | 12.22° C | 94% | 1008.6 hPa | 0 mm | - | 0 W/m² | - |
| 1778135436 | 12.78° C | 94% | 1008.8 hPa | 1.27 mm | - | 0 W/m² | - |
| 1778135133 | 12.78° C | 94% | 1008.2 hPa | 4.32 mm | - | 0 W/m² | - |
| 1778134830 | 13.33° C | 94% | 1008.5 hPa | 3.05 mm | - | 0 W/m² | - |
| 1778134528 | 13.89° C | 94% | 1009.2 hPa | 0 mm | - | 0 W/m² | - |
* Rain latest hour (hover to see other rain measurements)
** Current wind speed in m/s (hover to see current wind gust speed)